sensor_id;sensor_type;location;lat;lon;timestamp;P1;durP1;ratioP1;P2;durP2;ratioP2
48861;SDS011;34681;49.188;-0.374;2022-12-08T00:00:40;15.40;;;13.90;;
48861;SDS011;34681;49.188;-0.374;2022-12-08T00:03:05;17.23;;;14.53;;
48861;SDS011;34681;49.188;-0.374;2022-12-08T00:05:31;15.53;;;13.93;;
48861;SDS011;34681;49.188;-0.374;2022-12-08T00:08:15;14.50;;;12.97;;
48861;SDS011;34681;49.188;-0.374;2022-12-08T00:10:58;14.27;;;12.97;;
48861;SDS011;34681;49.188;-0.374;2022-12-08T00:13:24;13.73;;;12.33;;
48861;SDS011;34681;49.188;-0.374;2022-12-08T00:15:49;13.60;;;12.40;;
48861;SDS011;34681;49.188;-0.374;2022-12-08T00:18:14;12.90;;;11.60;;
48861;SDS011;34681;49.188;-0.374;2022-12-08T00:20:40;11.80;;;10.70;;
48861;SDS011;34681;49.188;-0.374;2022-12-08T00:23:05;12.53;;;10.90;;
48861;SDS011;34681;49.188;-0.374;2022-12-08T00:25:30;15.87;;;14.27;;
48861;SDS011;34681;49.188;-0.374;2022-12-08T00:27:59;13.27;;;12.07;;
48861;SDS011;34681;49.188;-0.374;2022-12-08T00:30:24;11.33;;;10.23;;
48861;SDS011;34681;49.188;-0.374;2022-12-08T00:32:49;13.23;;;12.03;;
48861;SDS011;34681;49.188;-0.374;2022-12-08T00:35:15;13.73;;;12.37;;
48861;SDS011;34681;49.188;-0.374;2022-12-08T00:37:40;12.50;;;11.23;;
48861;SDS011;34681;49.188;-0.374;2022-12-08T00:40:06;13.30;;;12.10;;
48861;SDS011;34681;49.188;-0.374;2022-12-08T00:42:32;13.63;;;12.30;;
48861;SDS011;34681;49.188;-0.374;2022-12-08T00:44:57;12.70;;;11.60;;
48861;SDS011;34681;49.188;-0.374;2022-12-08T00:47:22;12.93;;;11.83;;
48861;SDS011;34681;49.188;-0.374;2022-12-08T00:49:48;12.17;;;11.07;;
48861;SDS011;34681;49.188;-0.374;2022-12-08T00:52:13;13.17;;;11.97;;
48861;SDS011;34681;49.188;-0.374;2022-12-08T00:54:38;12.10;;;10.90;;
48861;SDS011;34681;49.188;-0.374;2022-12-08T00:57:04;11.37;;;10.40;;
48861;SDS011;34681;49.188;-0.374;2022-12-08T00:59:29;11.43;;;10.43;;
48861;SDS011;34681;49.188;-0.374;2022-12-08T01:01:55;12.50;;;11.23;;
48861;SDS011;34681;49.188;-0.374;2022-12-08T01:04:20;12.37;;;11.13;;
48861;SDS011;34681;49.188;-0.374;2022-12-08T01:06:46;13.23;;;12.03;;
48861;SDS011;34681;49.188;-0.374;2022-12-08T01:09:12;13.20;;;12.00;;
48861;SDS011;34681;49.188;-0.374;2022-12-08T01:11:39;13.07;;;11.80;;
48861;SDS011;34681;49.188;-0.374;2022-12-08T01:14:04;12.70;;;11.60;;
48861;SDS011;34681;49.188;-0.374;2022-12-08T01:16:33;12.50;;;11.40;;
48861;SDS011;34681;49.188;-0.374;2022-12-08T01:18:59;13.20;;;12.10;;
48861;SDS011;34681;49.188;-0.374;2022-12-08T01:21:25;12.47;;;11.37;;
48861;SDS011;34681;49.188;-0.374;2022-12-08T01:23:51;14.30;;;12.80;;
48861;SDS011;34681;49.188;-0.374;2022-12-08T01:26:17;12.30;;;11.30;;
48861;SDS011;34681;49.188;-0.374;2022-12-08T01:28:44;14.57;;;13.03;;
48861;SDS011;34681;49.188;-0.374;2022-12-08T01:31:11;14.17;;;12.87;;
48861;SDS011;34681;49.188;-0.374;2022-12-08T01:33:38;13.00;;;11.80;;
48861;SDS011;34681;49.188;-0.374;2022-12-08T01:36:04;15.13;;;13.63;;
48861;SDS011;34681;49.188;-0.374;2022-12-08T01:38:30;14.40;;;12.70;;
48861;SDS011;34681;49.188;-0.374;2022-12-08T01:40:55;15.40;;;14.10;;
48861;SDS011;34681;49.188;-0.374;2022-12-08T01:43:21;14.30;;;13.00;;
48861;SDS011;34681;49.188;-0.374;2022-12-08T01:45:46;15.43;;;13.93;;
48861;SDS011;34681;49.188;-0.374;2022-12-08T01:48:13;13.57;;;12.43;;
48861;SDS011;34681;49.188;-0.374;2022-12-08T01:50:45;14.03;;;12.83;;
48861;SDS011;34681;49.188;-0.374;2022-12-08T01:53:29;13.50;;;12.30;;
48861;SDS011;34681;49.188;-0.374;2022-12-08T01:55:57;16.00;;;14.50;;
48861;SDS011;34681;49.188;-0.374;2022-12-08T01:58:31;14.67;;;13.20;;
48861;SDS011;34681;49.188;-0.374;2022-12-08T02:01:01;14.53;;;13.13;;
48861;SDS011;34681;49.188;-0.374;2022-12-08T02:03:28;15.13;;;13.73;;
48861;SDS011;34681;49.188;-0.374;2022-12-08T02:05:59;13.23;;;12.13;;
48861;SDS011;34681;49.188;-0.374;2022-12-08T02:08:25;15.17;;;13.67;;
48861;SDS011;34681;49.188;-0.374;2022-12-08T02:10:52;14.23;;;12.93;;
48861;SDS011;34681;49.188;-0.374;2022-12-08T02:13:18;16.57;;;14.33;;
48861;SDS011;34681;49.188;-0.374;2022-12-08T02:29:43;13.60;;;12.30;;
48861;SDS011;34681;49.188;-0.374;2022-12-08T02:33:24;12.73;;;11.43;;
48861;SDS011;34681;49.188;-0.374;2022-12-08T02:35:42;16.47;;;14.87;;
48861;SDS011;34681;49.188;-0.374;2022-12-08T02:38:27;13.80;;;12.17;;
48861;SDS011;34681;49.188;-0.374;2022-12-08T02:43:32;12.90;;;11.77;;
48861;SDS011;34681;49.188;-0.374;2022-12-08T02:46:04;14.03;;;12.77;;
48861;SDS011;34681;49.188;-0.374;2022-12-08T02:48:32;12.97;;;11.77;;
48861;SDS011;34681;49.188;-0.374;2022-12-08T02:50:58;14.60;;;12.57;;
48861;SDS011;34681;49.188;-0.374;2022-12-08T02:53:25;13.33;;;12.03;;
48861;SDS011;34681;49.188;-0.374;2022-12-08T03:03:27;14.17;;;12.77;;
48861;SDS011;34681;49.188;-0.374;2022-12-08T03:09:29;13.10;;;11.90;;
48861;SDS011;34681;49.188;-0.374;2022-12-08T03:12:05;13.33;;;11.27;;
48861;SDS011;34681;49.188;-0.374;2022-12-08T03:14:39;12.40;;;11.23;;
48861;SDS011;34681;49.188;-0.374;2022-12-08T03:17:10;12.13;;;10.97;;
48861;SDS011;34681;49.188;-0.374;2022-12-08T03:19:38;12.43;;;10.53;;
48861;SDS011;34681;49.188;-0.374;2022-12-08T03:22:07;10.70;;;9.90;;
48861;SDS011;34681;49.188;-0.374;2022-12-08T03:24:38;10.97;;;10.07;;
48861;SDS011;34681;49.188;-0.374;2022-12-08T03:27:11;10.57;;;9.63;;
48861;SDS011;34681;49.188;-0.374;2022-12-08T03:29:43;10.53;;;9.67;;
48861;SDS011;34681;49.188;-0.374;2022-12-08T03:35:00;12.90;;;11.30;;
48861;SDS011;34681;49.188;-0.374;2022-12-08T03:37:29;14.80;;;13.27;;
48861;SDS011;34681;49.188;-0.374;2022-12-08T03:39:54;14.00;;;12.90;;
48861;SDS011;34681;49.188;-0.374;2022-12-08T03:42:20;15.40;;;14.10;;
48861;SDS011;34681;49.188;-0.374;2022-12-08T03:44:46;14.90;;;13.63;;
48861;SDS011;34681;49.188;-0.374;2022-12-08T03:47:11;15.03;;;13.53;;
48861;SDS011;34681;49.188;-0.374;2022-12-08T03:49:37;14.93;;;13.10;;
48861;SDS011;34681;49.188;-0.374;2022-12-08T03:52:02;15.17;;;13.67;;
48861;SDS011;34681;49.188;-0.374;2022-12-08T03:54:27;13.50;;;12.13;;
48861;SDS011;34681;49.188;-0.374;2022-12-08T03:56:53;11.80;;;10.67;;
48861;SDS011;34681;49.188;-0.374;2022-12-08T03:59:18;12.87;;;11.53;;
48861;SDS011;34681;49.188;-0.374;2022-12-08T04:01:43;8.70;;;8.03;;
48861;SDS011;34681;49.188;-0.374;2022-12-08T04:04:09;11.37;;;10.37;;
48861;SDS011;34681;49.188;-0.374;2022-12-08T04:06:34;9.80;;;9.00;;
48861;SDS011;34681;49.188;-0.374;2022-12-08T04:09:00;10.67;;;9.87;;
48861;SDS011;34681;49.188;-0.374;2022-12-08T04:11:25;9.33;;;8.63;;
48861;SDS011;34681;49.188;-0.374;2022-12-08T04:13:50;9.50;;;8.60;;
48861;SDS011;34681;49.188;-0.374;2022-12-08T04:16:17;9.30;;;8.50;;
48861;SDS011;34681;49.188;-0.374;2022-12-08T04:18:44;9.70;;;8.80;;
48861;SDS011;34681;49.188;-0.374;2022-12-08T04:21:10;8.50;;;7.90;;
48861;SDS011;34681;49.188;-0.374;2022-12-08T04:23:35;8.17;;;7.50;;
48861;SDS011;34681;49.188;-0.374;2022-12-08T04:26:01;8.70;;;8.00;;
48861;SDS011;34681;49.188;-0.374;2022-12-08T04:28:26;7.63;;;6.93;;
48861;SDS011;34681;49.188;-0.374;2022-12-08T04:30:53;8.70;;;7.97;;
48861;SDS011;34681;49.188;-0.374;2022-12-08T04:33:19;10.20;;;7.93;;
48861;SDS011;34681;49.188;-0.374;2022-12-08T04:35:44;11.30;;;8.37;;
48861;SDS011;34681;49.188;-0.374;2022-12-08T04:38:09;8.70;;;8.00;;
48861;SDS011;34681;49.188;-0.374;2022-12-08T04:40:35;8.63;;;8.03;;
48861;SDS011;34681;49.188;-0.374;2022-12-08T04:43:00;8.20;;;7.60;;
48861;SDS011;34681;49.188;-0.374;2022-12-08T04:45:25;7.93;;;7.33;;
48861;SDS011;34681;49.188;-0.374;2022-12-08T04:47:51;7.80;;;7.20;;
48861;SDS011;34681;49.188;-0.374;2022-12-08T04:50:16;7.90;;;7.30;;
48861;SDS011;34681;49.188;-0.374;2022-12-08T04:52:42;7.73;;;7.10;;
48861;SDS011;34681;49.188;-0.374;2022-12-08T04:55:07;7.43;;;6.70;;
48861;SDS011;34681;49.188;-0.374;2022-12-08T04:57:33;7.90;;;7.30;;
48861;SDS011;34681;49.188;-0.374;2022-12-08T04:59:58;7.33;;;6.67;;
48861;SDS011;34681;49.188;-0.374;2022-12-08T05:02:23;7.40;;;6.90;;
48861;SDS011;34681;49.188;-0.374;2022-12-08T05:04:49;7.90;;;7.20;;
48861;SDS011;34681;49.188;-0.374;2022-12-08T05:07:14;7.47;;;6.60;;
48861;SDS011;34681;49.188;-0.374;2022-12-08T05:09:40;7.40;;;6.80;;
48861;SDS011;34681;49.188;-0.374;2022-12-08T05:12:05;7.17;;;6.57;;
48861;SDS011;34681;49.188;-0.374;2022-12-08T05:14:31;7.63;;;7.03;;
48861;SDS011;34681;49.188;-0.374;2022-12-08T05:16:56;7.20;;;6.70;;
48861;SDS011;34681;49.188;-0.374;2022-12-08T05:19:21;7.33;;;6.73;;
48861;SDS011;34681;49.188;-0.374;2022-12-08T05:21:47;5.97;;;5.57;;
48861;SDS011;34681;49.188;-0.374;2022-12-08T05:24:12;5.47;;;5.07;;
48861;SDS011;34681;49.188;-0.374;2022-12-08T05:26:38;6.80;;;6.30;;
48861;SDS011;34681;49.188;-0.374;2022-12-08T05:29:03;6.17;;;5.67;;
48861;SDS011;34681;49.188;-0.374;2022-12-08T05:31:28;10.80;;;9.40;;
48861;SDS011;34681;49.188;-0.374;2022-12-08T05:33:54;19.73;;;16.93;;
48861;SDS011;34681;49.188;-0.374;2022-12-08T05:36:20;25.87;;;20.70;;
48861;SDS011;34681;49.188;-0.374;2022-12-08T05:38:45;43.83;;;23.93;;
48861;SDS011;34681;49.188;-0.374;2022-12-08T05:41:15;45.60;;;26.50;;
48861;SDS011;34681;49.188;-0.374;2022-12-08T05:43:42;39.23;;;22.03;;
48861;SDS011;34681;49.188;-0.374;2022-12-08T05:46:08;27.27;;;17.37;;
48861;SDS011;34681;49.188;-0.374;2022-12-08T05:48:34;20.97;;;14.27;;
48861;SDS011;34681;49.188;-0.374;2022-12-08T05:50:59;15.33;;;13.70;;
48861;SDS011;34681;49.188;-0.374;2022-12-08T05:53:25;15.23;;;11.90;;
48861;SDS011;34681;49.188;-0.374;2022-12-08T05:55:51;25.57;;;15.03;;
48861;SDS011;34681;49.188;-0.374;2022-12-08T05:58:17;19.00;;;14.27;;
48861;SDS011;34681;49.188;-0.374;2022-12-08T06:00:44;23.80;;;14.80;;
48861;SDS011;34681;49.188;-0.374;2022-12-08T06:03:11;22.03;;;16.23;;
48861;SDS011;34681;49.188;-0.374;2022-12-08T06:05:37;26.67;;;18.50;;
48861;SDS011;34681;49.188;-0.374;2022-12-08T06:08:04;33.20;;;21.67;;
48861;SDS011;34681;49.188;-0.374;2022-12-08T06:10:29;18.03;;;13.97;;
48861;SDS011;34681;49.188;-0.374;2022-12-08T06:12:55;13.27;;;11.87;;
48861;SDS011;34681;49.188;-0.374;2022-12-08T06:15:20;11.03;;;10.10;;
48861;SDS011;34681;49.188;-0.374;2022-12-08T06:17:46;13.40;;;10.43;;
48861;SDS011;34681;49.188;-0.374;2022-12-08T06:20:11;10.40;;;9.57;;
48861;SDS011;34681;49.188;-0.374;2022-12-08T06:22:36;10.90;;;10.00;;
48861;SDS011;34681;49.188;-0.374;2022-12-08T06:25:02;11.83;;;10.73;;
48861;SDS011;34681;49.188;-0.374;2022-12-08T06:27:28;10.10;;;9.10;;
48861;SDS011;34681;49.188;-0.374;2022-12-08T06:29:54;9.93;;;9.03;;
48861;SDS011;34681;49.188;-0.374;2022-12-08T06:32:19;8.73;;;8.03;;
48861;SDS011;34681;49.188;-0.374;2022-12-08T06:34:45;10.23;;;9.33;;
48861;SDS011;34681;49.188;-0.374;2022-12-08T06:37:10;9.77;;;8.87;;
48861;SDS011;34681;49.188;-0.374;2022-12-08T06:39:35;9.50;;;8.70;;
48861;SDS011;34681;49.188;-0.374;2022-12-08T06:42:01;8.10;;;7.50;;
48861;SDS011;34681;49.188;-0.374;2022-12-08T06:44:45;7.20;;;6.60;;
48861;SDS011;34681;49.188;-0.374;2022-12-08T06:47:11;6.73;;;6.23;;
48861;SDS011;34681;49.188;-0.374;2022-12-08T06:49:36;6.10;;;5.70;;
48861;SDS011;34681;49.188;-0.374;2022-12-08T06:52:02;6.07;;;5.67;;
48861;SDS011;34681;49.188;-0.374;2022-12-08T06:54:27;5.77;;;5.27;;
48861;SDS011;34681;49.188;-0.374;2022-12-08T06:56:53;6.07;;;5.63;;
48861;SDS011;34681;49.188;-0.374;2022-12-08T06:59:18;4.60;;;4.30;;
48861;SDS011;34681;49.188;-0.374;2022-12-08T07:01:44;5.23;;;4.77;;
48861;SDS011;34681;49.188;-0.374;2022-12-08T07:04:10;5.77;;;4.97;;
48861;SDS011;34681;49.188;-0.374;2022-12-08T07:06:35;4.70;;;4.40;;
48861;SDS011;34681;49.188;-0.374;2022-12-08T07:09:01;4.17;;;3.93;;
48861;SDS011;34681;49.188;-0.374;2022-12-08T07:11:27;4.90;;;4.60;;
48861;SDS011;34681;49.188;-0.374;2022-12-08T07:13:54;4.40;;;4.10;;
48861;SDS011;34681;49.188;-0.374;2022-12-08T07:16:20;4.40;;;4.00;;
48861;SDS011;34681;49.188;-0.374;2022-12-08T07:18:46;4.37;;;3.97;;
48861;SDS011;34681;49.188;-0.374;2022-12-08T07:21:12;9.07;;;6.27;;
48861;SDS011;34681;49.188;-0.374;2022-12-08T07:23:41;46.00;;;20.77;;
48861;SDS011;34681;49.188;-0.374;2022-12-08T07:26:11;45.57;;;22.17;;
48861;SDS011;34681;49.188;-0.374;2022-12-08T07:28:37;27.13;;;15.30;;
48861;SDS011;34681;49.188;-0.374;2022-12-08T07:31:04;30.97;;;14.77;;
48861;SDS011;34681;49.188;-0.374;2022-12-08T07:33:31;35.70;;;18.17;;
48861;SDS011;34681;49.188;-0.374;2022-12-08T07:35:58;27.40;;;14.90;;
48861;SDS011;34681;49.188;-0.374;2022-12-08T07:38:24;21.13;;;10.33;;
48861;SDS011;34681;49.188;-0.374;2022-12-08T07:40:51;20.77;;;10.10;;
48861;SDS011;34681;49.188;-0.374;2022-12-08T07:43:17;10.70;;;6.50;;
48861;SDS011;34681;49.188;-0.374;2022-12-08T07:45:42;7.63;;;5.90;;
48861;SDS011;34681;49.188;-0.374;2022-12-08T07:48:08;6.00;;;5.50;;
48861;SDS011;34681;49.188;-0.374;2022-12-08T07:50:33;6.80;;;6.00;;
48861;SDS011;34681;49.188;-0.374;2022-12-08T07:52:59;9.10;;;5.70;;
48861;SDS011;34681;49.188;-0.374;2022-12-08T07:55:25;7.27;;;6.13;;
48861;SDS011;34681;49.188;-0.374;2022-12-08T07:57:50;7.30;;;5.93;;
48861;SDS011;34681;49.188;-0.374;2022-12-08T08:00:16;9.40;;;6.33;;
48861;SDS011;34681;49.188;-0.374;2022-12-08T08:02:43;22.70;;;11.07;;
48861;SDS011;34681;49.188;-0.374;2022-12-08T08:05:08;13.60;;;7.10;;
48861;SDS011;34681;49.188;-0.374;2022-12-08T08:07:36;7.70;;;5.43;;
48861;SDS011;34681;49.188;-0.374;2022-12-08T08:10:02;5.70;;;4.43;;
48861;SDS011;34681;49.188;-0.374;2022-12-08T08:12:27;4.60;;;4.20;;
48861;SDS011;34681;49.188;-0.374;2022-12-08T08:14:53;5.23;;;4.83;;
48861;SDS011;34681;49.188;-0.374;2022-12-08T08:17:18;5.20;;;3.63;;
48861;SDS011;34681;49.188;-0.374;2022-12-08T08:19:44;4.70;;;4.27;;
48861;SDS011;34681;49.188;-0.374;2022-12-08T08:22:10;4.03;;;3.73;;
48861;SDS011;34681;49.188;-0.374;2022-12-08T08:24:35;16.93;;;6.60;;
48861;SDS011;34681;49.188;-0.374;2022-12-08T08:27:01;18.27;;;10.50;;
48861;SDS011;34681;49.188;-0.374;2022-12-08T08:29:26;26.20;;;10.87;;
48861;SDS011;34681;49.188;-0.374;2022-12-08T08:31:52;21.33;;;10.60;;
48861;SDS011;34681;49.188;-0.374;2022-12-08T08:34:17;51.07;;;18.20;;
48861;SDS011;34681;49.188;-0.374;2022-12-08T08:36:43;87.23;;;30.63;;
48861;SDS011;34681;49.188;-0.374;2022-12-08T08:39:08;85.17;;;27.63;;
48861;SDS011;34681;49.188;-0.374;2022-12-08T08:41:33;65.93;;;24.77;;
48861;SDS011;34681;49.188;-0.374;2022-12-08T08:43:59;50.50;;;20.20;;
48861;SDS011;34681;49.188;-0.374;2022-12-08T08:46:25;61.87;;;25.40;;
48861;SDS011;34681;49.188;-0.374;2022-12-08T08:48:50;46.17;;;16.63;;
48861;SDS011;34681;49.188;-0.374;2022-12-08T08:51:16;10.07;;;6.90;;
48861;SDS011;34681;49.188;-0.374;2022-12-08T08:53:41;8.17;;;5.50;;
48861;SDS011;34681;49.188;-0.374;2022-12-08T08:56:11;6.37;;;5.10;;
48861;SDS011;34681;49.188;-0.374;2022-12-08T08:58:38;8.13;;;5.77;;
48861;SDS011;34681;49.188;-0.374;2022-12-08T09:01:04;14.27;;;8.50;;
48861;SDS011;34681;49.188;-0.374;2022-12-08T09:03:30;9.40;;;8.13;;
48861;SDS011;34681;49.188;-0.374;2022-12-08T09:05:55;12.50;;;7.40;;
48861;SDS011;34681;49.188;-0.374;2022-12-08T09:08:21;9.03;;;6.63;;
48861;SDS011;34681;49.188;-0.374;2022-12-08T09:10:47;9.00;;;7.30;;
48861;SDS011;34681;49.188;-0.374;2022-12-08T09:13:12;6.73;;;6.20;;
48861;SDS011;34681;49.188;-0.374;2022-12-08T09:15:38;8.20;;;6.17;;
48861;SDS011;34681;49.188;-0.374;2022-12-08T09:18:03;7.73;;;7.03;;
48861;SDS011;34681;49.188;-0.374;2022-12-08T09:20:30;7.37;;;6.07;;
48861;SDS011;34681;49.188;-0.374;2022-12-08T09:22:56;6.97;;;5.90;;
48861;SDS011;34681;49.188;-0.374;2022-12-08T09:25:22;8.40;;;6.13;;
48861;SDS011;34681;49.188;-0.374;2022-12-08T09:27:47;6.40;;;5.90;;
48861;SDS011;34681;49.188;-0.374;2022-12-08T09:30:12;5.67;;;5.17;;
48861;SDS011;34681;49.188;-0.374;2022-12-08T09:32:38;6.10;;;5.47;;
48861;SDS011;34681;49.188;-0.374;2022-12-08T09:35:04;8.33;;;5.10;;
48861;SDS011;34681;49.188;-0.374;2022-12-08T09:37:30;6.97;;;6.47;;
48861;SDS011;34681;49.188;-0.374;2022-12-08T09:39:56;8.23;;;5.70;;
48861;SDS011;34681;49.188;-0.374;2022-12-08T09:42:33;6.20;;;5.70;;
48861;SDS011;34681;49.188;-0.374;2022-12-08T09:45:08;7.27;;;5.70;;
48861;SDS011;34681;49.188;-0.374;2022-12-08T09:50:36;7.13;;;6.43;;
48861;SDS011;34681;49.188;-0.374;2022-12-08T09:58:10;7.37;;;6.00;;
48861;SDS011;34681;49.188;-0.374;2022-12-08T10:00:46;6.20;;;5.53;;
48861;SDS011;34681;49.188;-0.374;2022-12-08T10:03:11;6.40;;;5.80;;
48861;SDS011;34681;49.188;-0.374;2022-12-08T10:05:38;5.90;;;5.40;;
48861;SDS011;34681;49.188;-0.374;2022-12-08T10:08:19;7.00;;;6.40;;
48861;SDS011;34681;49.188;-0.374;2022-12-08T10:13:29;11.00;;;9.97;;
48861;SDS011;34681;49.188;-0.374;2022-12-08T10:19:10;8.30;;;7.60;;
48861;SDS011;34681;49.188;-0.374;2022-12-08T10:21:49;8.13;;;7.33;;
48861;SDS011;34681;49.188;-0.374;2022-12-08T10:24:21;7.00;;;6.40;;
48861;SDS011;34681;49.188;-0.374;2022-12-08T10:27:09;7.63;;;6.50;;
48861;SDS011;34681;49.188;-0.374;2022-12-08T10:29:36;8.67;;;7.00;;
48861;SDS011;34681;49.188;-0.374;2022-12-08T10:32:05;7.43;;;6.80;;
48861;SDS011;34681;49.188;-0.374;2022-12-08T10:34:55;9.17;;;6.70;;
48861;SDS011;34681;49.188;-0.374;2022-12-08T10:37:27;11.77;;;7.27;;
48861;SDS011;34681;49.188;-0.374;2022-12-08T10:40:00;8.13;;;7.40;;
48861;SDS011;34681;49.188;-0.374;2022-12-08T10:42:36;7.63;;;6.80;;
48861;SDS011;34681;49.188;-0.374;2022-12-08T10:47:37;7.13;;;6.53;;
48861;SDS011;34681;49.188;-0.374;2022-12-08T10:52:45;7.23;;;6.57;;
48861;SDS011;34681;49.188;-0.374;2022-12-08T10:55:19;6.50;;;5.97;;
48861;SDS011;34681;49.188;-0.374;2022-12-08T10:57:45;8.10;;;6.50;;
48861;SDS011;34681;49.188;-0.374;2022-12-08T11:00:17;7.07;;;6.43;;
48861;SDS011;34681;49.188;-0.374;2022-12-08T11:03:03;7.93;;;7.20;;
48861;SDS011;34681;49.188;-0.374;2022-12-08T11:05:33;5.57;;;5.20;;
48861;SDS011;34681;49.188;-0.374;2022-12-08T11:07:59;5.43;;;5.00;;
48861;SDS011;34681;49.188;-0.374;2022-12-08T11:10:31;5.00;;;4.60;;
48861;SDS011;34681;49.188;-0.374;2022-12-08T11:13:03;5.50;;;5.07;;
48861;SDS011;34681;49.188;-0.374;2022-12-08T11:15:34;5.90;;;5.17;;
48861;SDS011;34681;49.188;-0.374;2022-12-08T11:18:07;4.77;;;3.83;;
48861;SDS011;34681;49.188;-0.374;2022-12-08T11:20:44;3.80;;;3.60;;
48861;SDS011;34681;49.188;-0.374;2022-12-08T11:23:20;5.53;;;2.97;;
48861;SDS011;34681;49.188;-0.374;2022-12-08T11:25:47;7.63;;;3.93;;
48861;SDS011;34681;49.188;-0.374;2022-12-08T11:28:15;3.73;;;3.43;;
48861;SDS011;34681;49.188;-0.374;2022-12-08T11:30:46;4.40;;;3.70;;
48861;SDS011;34681;49.188;-0.374;2022-12-08T11:33:23;5.10;;;3.80;;
48861;SDS011;34681;49.188;-0.374;2022-12-08T11:35:53;3.77;;;3.50;;
48861;SDS011;34681;49.188;-0.374;2022-12-08T11:38:20;4.30;;;3.40;;
48861;SDS011;34681;49.188;-0.374;2022-12-08T11:40:52;4.83;;;3.27;;
48861;SDS011;34681;49.188;-0.374;2022-12-08T11:46:00;3.90;;;3.60;;
48861;SDS011;34681;49.188;-0.374;2022-12-08T11:51:02;3.30;;;3.03;;
48861;SDS011;34681;49.188;-0.374;2022-12-08T11:53:42;6.70;;;4.30;;
48861;SDS011;34681;49.188;-0.374;2022-12-08T11:56:14;5.20;;;4.63;;
48861;SDS011;34681;49.188;-0.374;2022-12-08T11:58:44;4.87;;;4.57;;
48861;SDS011;34681;49.188;-0.374;2022-12-08T12:01:23;6.07;;;5.57;;
48861;SDS011;34681;49.188;-0.374;2022-12-08T12:03:56;8.63;;;5.83;;
48861;SDS011;34681;49.188;-0.374;2022-12-08T12:06:45;5.47;;;4.97;;
48861;SDS011;34681;49.188;-0.374;2022-12-08T12:15:14;8.40;;;6.43;;
48861;SDS011;34681;49.188;-0.374;2022-12-08T12:23:07;6.70;;;6.20;;
48861;SDS011;34681;49.188;-0.374;2022-12-08T12:25:56;8.67;;;6.50;;
48861;SDS011;34681;49.188;-0.374;2022-12-08T12:28:24;8.10;;;6.77;;
48861;SDS011;34681;49.188;-0.374;2022-12-08T12:31:04;7.83;;;6.10;;
48861;SDS011;34681;49.188;-0.374;2022-12-08T12:33:32;7.27;;;6.53;;
48861;SDS011;34681;49.188;-0.374;2022-12-08T12:36:04;7.03;;;6.27;;
48861;SDS011;34681;49.188;-0.374;2022-12-08T12:38:36;6.07;;;5.67;;
48861;SDS011;34681;49.188;-0.374;2022-12-08T12:54:29;7.23;;;5.67;;
48861;SDS011;34681;49.188;-0.374;2022-12-08T12:59:34;5.37;;;4.97;;
48861;SDS011;34681;49.188;-0.374;2022-12-08T13:02:22;6.13;;;5.63;;
48861;SDS011;34681;49.188;-0.374;2022-12-08T13:05:00;5.90;;;5.30;;
48861;SDS011;34681;49.188;-0.374;2022-12-08T13:07:35;7.03;;;6.23;;
48861;SDS011;34681;49.188;-0.374;2022-12-08T13:12:33;6.97;;;5.80;;
48861;SDS011;34681;49.188;-0.374;2022-12-08T13:15:00;6.13;;;5.60;;
48861;SDS011;34681;49.188;-0.374;2022-12-08T13:17:30;6.63;;;6.03;;
48861;SDS011;34681;49.188;-0.374;2022-12-08T13:19:59;6.03;;;5.60;;
48861;SDS011;34681;49.188;-0.374;2022-12-08T13:28:12;7.43;;;6.90;;
48861;SDS011;34681;49.188;-0.374;2022-12-08T13:30:50;7.37;;;6.83;;
48861;SDS011;34681;49.188;-0.374;2022-12-08T13:36:12;7.23;;;6.40;;
48861;SDS011;34681;49.188;-0.374;2022-12-08T13:38:44;6.60;;;6.00;;
48861;SDS011;34681;49.188;-0.374;2022-12-08T13:41:13;4.63;;;4.23;;
48861;SDS011;34681;49.188;-0.374;2022-12-08T13:46:08;4.77;;;4.37;;
48861;SDS011;34681;49.188;-0.374;2022-12-08T13:48:45;5.10;;;4.40;;
48861;SDS011;34681;49.188;-0.374;2022-12-08T13:51:17;5.20;;;4.87;;
48861;SDS011;34681;49.188;-0.374;2022-12-08T13:54:05;5.23;;;4.70;;
48861;SDS011;34681;49.188;-0.374;2022-12-08T13:56:34;5.37;;;4.87;;
48861;SDS011;34681;49.188;-0.374;2022-12-08T13:59:06;6.00;;;5.37;;
48861;SDS011;34681;49.188;-0.374;2022-12-08T14:01:48;5.40;;;4.87;;
48861;SDS011;34681;49.188;-0.374;2022-12-08T14:04:15;4.77;;;4.47;;
48861;SDS011;34681;49.188;-0.374;2022-12-08T14:06:47;5.40;;;5.00;;
48861;SDS011;34681;49.188;-0.374;2022-12-08T14:09:24;5.27;;;4.87;;
48861;SDS011;34681;49.188;-0.374;2022-12-08T14:14:27;4.27;;;3.83;;
48861;SDS011;34681;49.188;-0.374;2022-12-08T14:17:06;4.23;;;3.93;;
48861;SDS011;34681;49.188;-0.374;2022-12-08T14:19:35;4.17;;;3.97;;
48861;SDS011;34681;49.188;-0.374;2022-12-08T14:22:11;4.13;;;3.83;;
48861;SDS011;34681;49.188;-0.374;2022-12-08T14:24:39;4.20;;;3.90;;
48861;SDS011;34681;49.188;-0.374;2022-12-08T14:27:10;6.60;;;4.37;;
48861;SDS011;34681;49.188;-0.374;2022-12-08T14:29:41;4.33;;;4.03;;
48861;SDS011;34681;49.188;-0.374;2022-12-08T14:37:32;4.47;;;4.10;;
48861;SDS011;34681;49.188;-0.374;2022-12-08T14:42:41;4.80;;;4.40;;
48861;SDS011;34681;49.188;-0.374;2022-12-08T14:45:09;5.63;;;4.13;;
48861;SDS011;34681;49.188;-0.374;2022-12-08T14:47:37;4.77;;;4.10;;
48861;SDS011;34681;49.188;-0.374;2022-12-08T14:50:39;4.60;;;4.20;;
48861;SDS011;34681;49.188;-0.374;2022-12-08T14:53:13;5.10;;;4.47;;
48861;SDS011;34681;49.188;-0.374;2022-12-08T14:55:41;4.90;;;4.60;;
48861;SDS011;34681;49.188;-0.374;2022-12-08T14:58:15;5.10;;;4.63;;
48861;SDS011;34681;49.188;-0.374;2022-12-08T15:00:45;5.27;;;4.97;;
48861;SDS011;34681;49.188;-0.374;2022-12-08T15:03:13;5.83;;;5.40;;
48861;SDS011;34681;49.188;-0.374;2022-12-08T15:05:40;4.60;;;4.20;;
48861;SDS011;34681;49.188;-0.374;2022-12-08T15:08:08;5.23;;;4.70;;
48861;SDS011;34681;49.188;-0.374;2022-12-08T15:10:36;5.87;;;5.47;;
48861;SDS011;34681;49.188;-0.374;2022-12-08T15:18:11;5.53;;;5.03;;
48861;SDS011;34681;49.188;-0.374;2022-12-08T15:20:40;5.80;;;5.30;;
48861;SDS011;34681;49.188;-0.374;2022-12-08T15:23:28;6.80;;;6.20;;
48861;SDS011;34681;49.188;-0.374;2022-12-08T15:25:56;10.67;;;6.73;;
48861;SDS011;34681;49.188;-0.374;2022-12-08T15:28:24;6.80;;;5.83;;
48861;SDS011;34681;49.188;-0.374;2022-12-08T15:30:52;6.53;;;5.93;;
48861;SDS011;34681;49.188;-0.374;2022-12-08T15:33:18;6.50;;;5.90;;
48861;SDS011;34681;49.188;-0.374;2022-12-08T15:35:44;7.30;;;6.60;;
48861;SDS011;34681;49.188;-0.374;2022-12-08T15:38:15;5.93;;;5.37;;
48861;SDS011;34681;49.188;-0.374;2022-12-08T15:40:44;7.50;;;6.30;;
48861;SDS011;34681;49.188;-0.374;2022-12-08T15:43:10;5.50;;;5.00;;
48861;SDS011;34681;49.188;-0.374;2022-12-08T15:45:35;10.10;;;6.30;;
48861;SDS011;34681;49.188;-0.374;2022-12-08T15:48:01;7.13;;;4.33;;
48861;SDS011;34681;49.188;-0.374;2022-12-08T15:50:27;6.23;;;5.60;;
48861;SDS011;34681;49.188;-0.374;2022-12-08T15:52:52;7.37;;;5.90;;
48861;SDS011;34681;49.188;-0.374;2022-12-08T15:55:18;4.60;;;4.30;;
48861;SDS011;34681;49.188;-0.374;2022-12-08T15:57:46;6.33;;;5.93;;
48861;SDS011;34681;49.188;-0.374;2022-12-08T16:02:54;6.93;;;6.37;;
48861;SDS011;34681;49.188;-0.374;2022-12-08T16:05:21;8.13;;;6.17;;
48861;SDS011;34681;49.188;-0.374;2022-12-08T16:07:50;6.20;;;5.70;;
48861;SDS011;34681;49.188;-0.374;2022-12-08T16:10:17;6.83;;;6.10;;
48861;SDS011;34681;49.188;-0.374;2022-12-08T16:12:44;8.20;;;6.90;;
48861;SDS011;34681;49.188;-0.374;2022-12-08T16:15:28;11.40;;;8.93;;
48861;SDS011;34681;49.188;-0.374;2022-12-08T16:17:56;34.67;;;14.93;;
48861;SDS011;34681;49.188;-0.374;2022-12-08T16:20:22;15.00;;;10.37;;
48861;SDS011;34681;49.188;-0.374;2022-12-08T16:22:48;10.70;;;8.43;;
48861;SDS011;34681;49.188;-0.374;2022-12-08T16:25:14;9.17;;;8.17;;